Bezoek onze andere website:

De Wijde Wereld



METAR rapporten vliegvelden

   
EHBK - Maastricht
Gewijzigd: 19-08-2019 14:25
Licht bewolkt  
Licht bewolkt  
   Wind: ZW 0 km/h
Wind: ZW 0 km/h
Temperatuur: 21°C
Dauwpunt: 10°C
Vochtigheid: 50%
Barometer: 1017 hPa
Bewolking: Few Clouds
Zicht: meer dan 10 km
Bewolking: Licht bewolkt 1371.6 m
EHBK 191225Z AUTO 23015KT 200V260 9999 FEW045 21/10 Q1017 NOSIG
LSZA - Lugano
Gewijzigd: 19-08-2019 14:20
Gedeeltelijk bewolkt  
Gedeeltelijk bewolkt  
   Wind: Oosten 0 km/h
Wind: Oosten 0 km/h
Temperatuur: 24°C
Dauwpunt: 18°C
Vochtigheid: 69%
Barometer: 1018 hPa
Bewolking: Partly Cloudy
Zicht: meer dan 10 km
Bewolking: Gedeeltelijk bewolkt 762 m,
Gedeeltelijk bewolkt 1828.8 m
LSZA 191220Z 08004KT 010V160 9999 SCT025 SCT060 24/18 Q1018 NOSIG
LIRA - Rome
Gewijzigd: 19-08-2019 14:20
Helder  
Helder  
   Wind: Westen 0 km/h
Wind: Westen 0 km/h
Temperatuur: 32°C
Dauwpunt: 11°C
Vochtigheid: 27%
Barometer: 1017 hPa
Zicht: meer dan 10 km
Bewolking: Helder m
LIRA 191220Z 27008KT 240V300 CAVOK 32/11 Q1017
LPFR - Faro
Gewijzigd: 19-08-2019 14:00
Helder  
Helder  
   Wind: ZW 0 km/h
Wind: ZW 0 km/h
Temperatuur: 24°C
Dauwpunt: 15°C
Vochtigheid: 57%
Barometer: 1016 hPa
Zicht: meer dan 10 km
Bewolking: Helder m
LPFR 191200Z 23010KT CAVOK 24/15 Q1016
EBCV - Mons/Bergen
Gewijzigd: 19-08-2019 13:55
Gedeeltelijk bewolkt  
Gedeeltelijk bewolkt  
   Wind: ZW 0 km/h
Wind: ZW 0 km/h
Temperatuur: 22°C
Dauwpunt: 12°C
Vochtigheid: 53%
Barometer: 1017 hPa
Bewolking: Partly Cloudy
Zicht: meer dan 10 km
Bewolking: Gedeeltelijk bewolkt 1219.2 m
EBCV 191155Z AUTO 22015KT 9999 SCT040/// 22/12 Q1017 BLU
EBOS - Oostende
Gewijzigd: 19-08-2019 14:20
Licht bewolkt  
Licht bewolkt  
   Wind: Westen 0 km/h
Wind: Westen 0 km/h
Temperatuur: 19°C
Dauwpunt: 12°C
Vochtigheid: 64%
Barometer: 1016 hPa
Bewolking: Few Clouds
Zicht: meer dan 10 km
Bewolking: Licht bewolkt 1066.8 m
EBOS 191220Z 26016KT 9999 FEW035TCU 19/12 Q1016 NOSIG

Script ontwikkeld door  Saratoga-weather.org Aangepast voor de template door  Weerstation Leuven

Apparatuur in gebruik:

Weerprogramma
Meteohub

Meteohub